createdAt,value
2023-01-25T00:00:30.479Z,20.23
2023-01-25T00:02:57.402Z,18.93
2023-01-25T00:05:24.319Z,19.13
2023-01-25T00:07:50.924Z,20.43
2023-01-25T00:10:17.701Z,19.77
2023-01-25T00:12:44.269Z,23.10
2023-01-25T00:15:11.182Z,23.23
2023-01-25T00:17:37.785Z,21.70
2023-01-25T00:20:04.710Z,20.30
2023-01-25T00:22:31.251Z,22.57
2023-01-25T00:24:57.826Z,22.10
2023-01-25T00:27:24.364Z,24.60
2023-01-25T00:29:50.936Z,26.50
2023-01-25T00:32:17.545Z,26.67
2023-01-25T00:34:49.502Z,28.87
2023-01-25T00:37:24.608Z,30.00
2023-01-25T00:39:52.024Z,28.33
2023-01-25T00:42:19.846Z,30.47
2023-01-25T00:44:47.998Z,27.97
2023-01-25T00:47:15.478Z,26.73
2023-01-25T00:49:44.002Z,24.90
2023-01-25T00:52:11.756Z,24.43
2023-01-25T00:54:38.740Z,24.60
2023-01-25T00:57:05.385Z,22.97
2023-01-25T00:59:31.952Z,22.23
2023-01-25T01:01:58.830Z,20.77
2023-01-25T01:04:25.703Z,22.20
2023-01-25T01:06:53.818Z,21.67
2023-01-25T01:09:21.798Z,20.30
2023-01-25T01:11:48.441Z,19.37
2023-01-25T01:14:15.394Z,18.97
2023-01-25T01:16:42.025Z,18.87
2023-01-25T01:19:08.629Z,18.50
2023-01-25T01:21:35.255Z,19.50
2023-01-25T01:24:01.859Z,21.20
2023-01-25T01:26:28.449Z,21.77
2023-01-25T01:28:55.058Z,21.83
2023-01-25T01:31:23.617Z,21.70
2023-01-25T01:33:55.446Z,18.37
2023-01-25T01:36:23.939Z,17.87
2023-01-25T01:38:50.589Z,18.27
2023-01-25T01:41:18.145Z,17.73
2023-01-25T01:43:45.385Z,18.47
2023-01-25T01:46:24.121Z,18.80
2023-01-25T01:48:58.988Z,19.70
2023-01-25T01:51:47.313Z,20.97
2023-01-25T01:54:31.409Z,22.83
2023-01-25T01:57:14.970Z,21.47
2023-01-25T01:59:53.286Z,22.60
2023-01-25T02:02:20.101Z,22.93
2023-01-25T02:04:50.802Z,22.53
2023-01-25T02:07:19.678Z,24.30
2023-01-25T02:09:47.872Z,24.87
2023-01-25T02:12:15.594Z,24.00
2023-01-25T02:14:47.949Z,27.07
2023-01-25T02:17:14.721Z,28.00
2023-01-25T02:20:09.230Z,30.37
2023-01-25T02:23:01.751Z,32.17
2023-01-25T02:25:29.670Z,31.73
2023-01-25T02:28:04.336Z,32.33
2023-01-25T02:30:31.269Z,29.37
2023-01-25T02:32:57.843Z,25.43
2023-01-25T02:35:56.119Z,26.70
2023-01-25T02:38:22.879Z,24.57
2023-01-25T02:40:55.775Z,27.60
2023-01-25T02:43:27.246Z,24.30
2023-01-25T02:46:01.136Z,27.80
2023-01-25T02:48:27.774Z,27.57
2023-01-25T02:50:54.493Z,27.30
2023-01-25T02:53:21.101Z,25.13
2023-01-25T02:55:47.638Z,25.57
2023-01-25T02:58:14.210Z,22.83
2023-01-25T03:00:40.827Z,23.53
2023-01-25T03:03:07.394Z,25.73
2023-01-25T03:05:33.982Z,26.70
2023-01-25T03:08:00.626Z,27.50
2023-01-25T03:10:27.180Z,26.30
2023-01-25T03:12:53.859Z,29.47
2023-01-25T03:15:20.419Z,26.87
2023-01-25T03:17:46.962Z,27.07
2023-01-25T03:20:13.567Z,28.30
2023-01-25T03:22:40.168Z,28.10
2023-01-25T03:25:07.861Z,29.63
2023-01-25T03:27:34.594Z,26.77
2023-01-25T03:30:01.144Z,28.17
2023-01-25T03:32:27.837Z,25.93
2023-01-25T03:34:54.463Z,24.50
2023-01-25T03:37:21.385Z,26.70
2023-01-25T03:39:47.937Z,26.67
2023-01-25T03:42:15.196Z,27.60
2023-01-25T03:44:41.756Z,26.70
2023-01-25T03:47:08.365Z,24.07
2023-01-25T03:49:35.039Z,24.07
2023-01-25T03:52:01.675Z,26.60
2023-01-25T03:54:28.306Z,26.20
2023-01-25T03:56:54.935Z,26.07
2023-01-25T03:59:21.548Z,25.63
2023-01-25T04:01:48.402Z,23.97
2023-01-25T04:04:15.056Z,25.60
2023-01-25T04:06:41.700Z,25.50
2023-01-25T04:09:08.439Z,20.90
2023-01-25T04:11:35.135Z,22.70
2023-01-25T04:14:01.805Z,22.20
2023-01-25T04:16:30.408Z,21.10
2023-01-25T04:18:57.214Z,18.77
2023-01-25T04:21:24.110Z,20.83
2023-01-25T04:23:50.816Z,20.50
2023-01-25T04:26:17.447Z,22.70
2023-01-25T04:28:44.057Z,21.27
2023-01-25T04:31:11.208Z,17.60
2023-01-25T04:33:37.830Z,18.13
2023-01-25T04:36:05.755Z,18.40
2023-01-25T04:38:32.306Z,18.20
2023-01-25T04:40:59.049Z,15.93
2023-01-25T04:43:26.509Z,16.10
2023-01-25T04:45:53.247Z,16.37
2023-01-25T04:48:19.999Z,17.33
2023-01-25T04:50:46.845Z,17.17
2023-01-25T04:53:13.882Z,17.27
2023-01-25T04:55:40.744Z,15.90
2023-01-25T04:58:07.333Z,16.60
2023-01-25T05:00:33.959Z,16.27
2023-01-25T05:03:00.561Z,17.13
2023-01-25T05:05:27.306Z,17.83
2023-01-25T05:07:53.849Z,17.70
2023-01-25T05:10:20.494Z,17.33
2023-01-25T05:12:47.055Z,16.87
2023-01-25T05:15:13.967Z,16.67
2023-01-25T05:17:40.593Z,16.53
2023-01-25T05:20:07.743Z,16.57
2023-01-25T05:22:34.290Z,17.23
2023-01-25T05:25:02.800Z,17.10
2023-01-25T05:27:29.708Z,16.40
2023-01-25T05:29:57.406Z,17.57
2023-01-25T05:32:24.568Z,17.50
2023-01-25T05:34:51.294Z,17.40
2023-01-25T05:37:19.799Z,18.07
2023-01-25T05:39:46.412Z,19.40
2023-01-25T05:42:17.983Z,16.73
2023-01-25T05:44:47.093Z,19.07
2023-01-25T05:47:16.546Z,18.83
2023-01-25T05:49:43.616Z,17.57
2023-01-25T05:52:15.057Z,17.77
2023-01-25T05:54:41.816Z,16.60
2023-01-25T05:57:08.452Z,19.77
2023-01-25T05:59:51.427Z,19.40
2023-01-25T06:02:18.032Z,18.20
2023-01-25T06:04:44.658Z,18.70
2023-01-25T06:07:11.248Z,18.40
2023-01-25T06:09:37.804Z,19.50
2023-01-25T06:12:06.006Z,20.33
2023-01-25T06:14:32.959Z,21.20
2023-01-25T06:16:59.480Z,20.60
2023-01-25T06:19:26.058Z,20.87
2023-01-25T06:21:52.653Z,20.47
2023-01-25T06:24:19.339Z,19.20
2023-01-25T06:26:45.901Z,21.50
2023-01-25T06:29:12.511Z,21.57
2023-01-25T06:31:39.135Z,20.00
2023-01-25T06:34:06.355Z,19.63
2023-01-25T06:36:33.155Z,20.87
2023-01-25T06:41:27.660Z,20.03
2023-01-25T06:43:55.754Z,19.60
2023-01-25T06:46:22.387Z,19.30
2023-01-25T06:48:49.174Z,18.27
2023-01-25T06:51:15.946Z,19.67
2023-01-25T06:53:45.066Z,19.77
2023-01-25T06:56:17.793Z,20.00
2023-01-25T06:58:45.131Z,19.20
2023-01-25T07:01:26.904Z,20.00
2023-01-25T07:03:55.920Z,19.27
2023-01-25T07:06:23.715Z,19.03
2023-01-25T07:08:50.839Z,20.00
2023-01-25T07:11:18.965Z,19.80
2023-01-25T07:13:47.481Z,20.67
2023-01-25T07:16:17.377Z,21.70
2023-01-25T07:18:44.436Z,19.37
2023-01-25T07:21:13.895Z,21.47
2023-01-25T07:23:41.650Z,23.30
2023-01-25T07:26:19.883Z,21.60
2023-01-25T07:28:47.485Z,20.40
2023-01-25T07:31:15.497Z,20.57
2023-01-25T07:33:42.169Z,19.07
2023-01-25T07:36:10.687Z,23.70
2023-01-25T07:38:37.977Z,22.63
2023-01-25T07:41:05.269Z,22.10
2023-01-25T07:43:32.324Z,21.23
2023-01-25T07:46:07.023Z,21.03
2023-01-25T07:48:34.220Z,22.77
2023-01-25T07:51:20.342Z,22.17
2023-01-25T07:53:47.397Z,21.70
2023-01-25T07:56:13.948Z,23.00
2023-01-25T07:58:40.495Z,20.60
2023-01-25T08:01:16.042Z,21.00
2023-01-25T08:03:43.935Z,22.27
2023-01-25T08:06:11.028Z,21.70
2023-01-25T08:08:41.311Z,21.97
2023-01-25T08:11:15.188Z,20.90
2023-01-25T08:13:49.711Z,21.07
2023-01-25T08:16:19.146Z,22.13
2023-01-25T08:18:50.191Z,23.57
2023-01-25T08:21:17.248Z,20.40
2023-01-25T08:23:44.008Z,20.77
2023-01-25T08:26:12.958Z,22.77
2023-01-25T08:28:40.199Z,20.00
2023-01-25T08:31:11.864Z,22.53
2023-01-25T08:33:39.753Z,23.27
2023-01-25T08:36:09.383Z,24.30
2023-01-25T08:38:36.668Z,24.50
2023-01-25T08:41:08.772Z,23.37
2023-01-25T08:43:35.771Z,22.20
2023-01-25T08:46:03.658Z,21.67
2023-01-25T08:48:30.242Z,21.83
2023-01-25T08:50:56.971Z,20.83
2023-01-25T08:53:23.686Z,21.67
2023-01-25T08:55:51.109Z,23.47
2023-01-25T08:58:21.878Z,23.83
2023-01-25T09:00:49.602Z,22.80
2023-01-25T09:03:18.018Z,22.53
2023-01-25T09:05:44.753Z,23.13
2023-01-25T09:08:11.584Z,22.67
2023-01-25T09:10:38.180Z,23.30
2023-01-25T09:13:06.403Z,23.07
2023-01-25T09:15:34.384Z,24.60
2023-01-25T09:18:01.095Z,22.90
2023-01-25T09:20:28.314Z,24.53
2023-01-25T09:22:56.185Z,23.70
2023-01-25T09:25:22.835Z,24.97
2023-01-25T09:27:55.211Z,22.77
2023-01-25T09:30:26.355Z,25.67
2023-01-25T09:32:57.416Z,23.13
2023-01-25T09:35:24.063Z,24.17
2023-01-25T09:37:52.118Z,23.40
2023-01-25T09:40:22.237Z,22.80
2023-01-25T09:43:05.759Z,24.93
2023-01-25T09:45:36.569Z,25.17
2023-01-25T09:48:28.239Z,24.83
2023-01-25T09:51:27.679Z,23.90
2023-01-25T09:53:57.052Z,26.07
2023-01-25T09:56:33.909Z,23.50
2023-01-25T09:59:10.611Z,24.87
2023-01-25T10:01:59.697Z,25.83
2023-01-25T10:04:37.605Z,25.30
2023-01-25T10:07:21.441Z,24.37
2023-01-25T10:09:59.821Z,25.50
2023-01-25T10:12:33.522Z,23.80
2023-01-25T10:15:00.120Z,24.63
2023-01-25T10:17:39.332Z,24.27
2023-01-25T10:20:24.059Z,24.10
2023-01-25T10:23:06.601Z,25.10
2023-01-25T10:25:46.033Z,25.80
2023-01-25T10:28:30.225Z,23.93
2023-01-25T10:31:05.866Z,24.60
2023-01-25T10:33:40.215Z,26.83
2023-01-25T10:36:07.342Z,26.23
2023-01-25T10:38:39.413Z,27.07
2023-01-25T10:41:16.656Z,26.90
2023-01-25T10:43:43.287Z,28.53
2023-01-25T10:46:25.558Z,28.67
2023-01-25T10:48:52.252Z,26.60
2023-01-25T10:51:30.287Z,27.13
2023-01-25T10:54:03.524Z,29.00
2023-01-25T10:56:33.925Z,26.27
2023-01-25T10:59:19.136Z,27.27
2023-01-25T11:01:45.851Z,27.67
2023-01-25T11:04:23.206Z,27.63
2023-01-25T11:06:51.348Z,28.10
2023-01-25T11:09:21.021Z,27.43
2023-01-25T11:11:56.260Z,28.50
2023-01-25T11:14:26.954Z,27.47
2023-01-25T11:16:55.253Z,27.27
2023-01-25T11:19:38.152Z,28.87
2023-01-25T11:22:26.247Z,28.90
2023-01-25T11:24:52.897Z,26.63
2023-01-25T11:27:25.222Z,28.53
2023-01-25T11:30:15.838Z,27.30
2023-01-25T11:32:42.681Z,28.43
2023-01-25T11:35:33.013Z,27.67
2023-01-25T11:38:14.770Z,28.70
2023-01-25T11:40:50.415Z,27.33
2023-01-25T11:43:24.003Z,26.20
2023-01-25T11:45:54.112Z,28.43
2023-01-25T11:49:03.062Z,27.07
2023-01-25T11:51:46.108Z,25.20
2023-01-25T11:54:29.683Z,29.30
2023-01-25T11:57:24.513Z,27.30
2023-01-25T12:00:00.816Z,27.13
2023-01-25T12:02:56.443Z,26.27
2023-01-25T12:05:38.805Z,28.63
2023-01-25T12:08:38.828Z,28.77
2023-01-25T12:11:05.332Z,31.70
2023-01-25T12:13:47.429Z,32.43
2023-01-25T12:16:54.692Z,30.70
2023-01-25T12:19:45.137Z,32.63
2023-01-25T12:22:45.458Z,30.77
2023-01-25T12:25:47.687Z,30.70
2023-01-25T12:28:27.545Z,33.83
2023-01-25T12:31:16.911Z,29.93
2023-01-25T12:33:51.604Z,30.43
2023-01-25T12:36:23.897Z,32.33
2023-01-25T12:38:59.601Z,31.33
2023-01-25T12:42:04.703Z,32.33
2023-01-25T12:44:37.623Z,31.83
2023-01-25T12:47:20.440Z,34.20
2023-01-25T12:49:59.369Z,30.43
2023-01-25T12:52:39.385Z,32.73
2023-01-25T12:55:12.755Z,29.70
2023-01-25T12:57:50.549Z,28.80
2023-01-25T13:00:23.505Z,30.80
2023-01-25T13:03:08.069Z,30.27
2023-01-25T13:05:39.492Z,28.00
2023-01-25T13:08:30.064Z,30.97
2023-01-25T13:11:13.095Z,30.57
2023-01-25T13:13:39.889Z,30.50
2023-01-25T13:16:50.196Z,34.47
2023-01-25T13:19:20.853Z,32.17
2023-01-25T13:21:49.649Z,34.73
2023-01-25T13:24:29.312Z,32.83
2023-01-25T13:26:55.817Z,32.00
2023-01-25T13:29:42.888Z,30.43
2023-01-25T13:32:15.285Z,31.10
2023-01-25T13:34:42.433Z,31.63
2023-01-25T13:37:18.895Z,30.90
2023-01-25T13:39:49.248Z,31.33
2023-01-25T13:42:21.447Z,33.90
2023-01-25T13:44:51.715Z,31.37
2023-01-25T13:47:22.536Z,33.60
2023-01-25T13:49:55.358Z,31.50
2023-01-25T13:52:23.430Z,30.43
2023-01-25T13:54:53.925Z,32.37
2023-01-25T13:57:26.842Z,31.60
2023-01-25T14:00:11.706Z,31.13
2023-01-25T14:02:39.538Z,32.40
2023-01-25T14:05:08.027Z,33.17
2023-01-25T14:07:36.891Z,35.63
2023-01-25T14:10:10.480Z,35.43
2023-01-25T14:12:42.746Z,33.50
2023-01-25T14:15:28.405Z,33.80
2023-01-25T14:18:13.055Z,33.30
2023-01-25T14:20:40.443Z,33.37
2023-01-25T14:23:24.571Z,32.47
2023-01-25T14:25:52.442Z,34.97
2023-01-25T14:28:19.157Z,34.03
2023-01-25T14:30:54.967Z,33.57
2023-01-25T14:33:31.391Z,33.43
2023-01-25T14:36:24.143Z,31.67
2023-01-25T14:38:52.049Z,31.40
2023-01-25T14:41:20.227Z,31.80
2023-01-25T14:43:53.792Z,33.37
2023-01-25T14:46:20.486Z,31.40
2023-01-25T14:48:47.220Z,33.43
2023-01-25T14:51:30.065Z,32.80
2023-01-25T14:54:05.227Z,32.33
2023-01-25T14:56:42.733Z,33.77
2023-01-25T14:59:27.387Z,36.53
2023-01-25T15:01:56.166Z,37.20
2023-01-25T15:04:23.378Z,36.23
2023-01-25T15:06:52.483Z,35.03
2023-01-25T15:09:40.528Z,34.40
2023-01-25T15:12:16.108Z,33.40
2023-01-25T15:14:53.786Z,37.00
2023-01-25T15:17:43.883Z,36.00
2023-01-25T15:20:33.552Z,35.40
2023-01-25T15:23:26.342Z,36.87
2023-01-25T15:26:00.710Z,36.60
2023-01-25T15:28:34.210Z,35.37
2023-01-25T15:31:01.106Z,35.50
2023-01-25T15:33:29.695Z,36.33
2023-01-25T15:35:56.544Z,34.63
2023-01-25T15:38:24.293Z,35.57
2023-01-25T15:40:52.024Z,34.80
2023-01-25T15:43:19.774Z,35.80
2023-01-25T15:45:49.292Z,35.03
2023-01-25T15:48:28.755Z,35.00
2023-01-25T15:50:56.475Z,35.80
2023-01-25T15:53:23.878Z,37.00
2023-01-25T15:56:15.468Z,37.43
2023-01-25T15:58:45.701Z,33.90
2023-01-25T16:01:12.834Z,32.60
2023-01-25T16:03:41.484Z,31.87
2023-01-25T16:06:20.563Z,32.60
2023-01-25T16:08:47.328Z,31.70
2023-01-25T16:11:14.029Z,30.00
2023-01-25T16:13:41.368Z,32.23
2023-01-25T16:16:19.362Z,32.53
2023-01-25T16:18:46.286Z,29.57
2023-01-25T16:21:13.219Z,31.57
2023-01-25T16:23:40.483Z,33.23
2023-01-25T16:26:17.644Z,32.10
2023-01-25T16:28:44.241Z,31.80
2023-01-25T16:31:26.284Z,32.00
2023-01-25T16:33:58.427Z,32.90
2023-01-25T16:36:25.113Z,29.93
2023-01-25T16:38:51.704Z,30.07
2023-01-25T16:41:18.731Z,30.57
2023-01-25T16:43:47.694Z,30.10
2023-01-25T16:46:21.016Z,30.20
2023-01-25T16:48:49.367Z,30.57
2023-01-25T16:51:18.337Z,29.30
2023-01-25T16:53:46.536Z,29.60
2023-01-25T16:56:17.283Z,30.37
2023-01-25T16:58:44.210Z,30.80
2023-01-25T17:01:12.619Z,28.80
2023-01-25T17:03:39.329Z,31.30
2023-01-25T17:06:06.699Z,29.70
2023-01-25T17:08:33.598Z,31.07
2023-01-25T17:11:05.323Z,31.73
2023-01-25T17:13:32.447Z,30.60
2023-01-25T17:16:00.927Z,30.70
2023-01-25T17:18:28.038Z,30.57
2023-01-25T17:21:02.750Z,30.03
2023-01-25T17:23:32.272Z,29.13
2023-01-25T17:25:58.904Z,28.77
2023-01-25T17:28:25.486Z,30.50
2023-01-25T17:30:54.336Z,30.60
2023-01-25T17:33:21.138Z,31.00
2023-01-25T17:35:47.735Z,27.90
2023-01-25T17:38:14.445Z,30.83
2023-01-25T17:40:41.211Z,29.00
2023-01-25T17:43:07.759Z,28.30
2023-01-25T17:45:38.443Z,29.60
2023-01-25T17:48:07.607Z,29.70
2023-01-25T17:50:34.669Z,27.77
2023-01-25T17:53:01.335Z,29.17
2023-01-25T17:55:29.574Z,29.97
2023-01-25T17:57:58.410Z,26.77
2023-01-25T18:00:25.120Z,30.30
2023-01-25T18:02:52.186Z,27.97
2023-01-25T18:05:18.899Z,28.93
2023-01-25T18:07:45.503Z,28.37
2023-01-25T18:10:12.618Z,26.70
2023-01-25T18:12:39.496Z,28.43
2023-01-25T18:15:07.002Z,26.07
2023-01-25T18:17:35.617Z,25.80
2023-01-25T18:20:06.728Z,26.73
2023-01-25T18:22:33.334Z,27.50
2023-01-25T18:25:00.788Z,26.40
2023-01-25T18:27:28.884Z,25.43
2023-01-25T18:30:03.856Z,28.60
2023-01-25T18:32:32.795Z,27.70
2023-01-25T18:34:59.643Z,28.20
2023-01-25T18:37:29.364Z,26.23
2023-01-25T18:39:56.816Z,26.90
2023-01-25T18:42:25.813Z,28.77
2023-01-25T18:44:52.515Z,26.77
2023-01-25T18:47:20.812Z,29.60
2023-01-25T18:49:51.776Z,26.73
2023-01-25T18:52:20.440Z,26.70
2023-01-25T18:54:47.280Z,28.40
2023-01-25T18:57:14.353Z,28.40
2023-01-25T18:59:40.989Z,28.33
2023-01-25T19:02:11.413Z,31.33
2023-01-25T19:04:38.074Z,27.37
2023-01-25T19:07:04.829Z,28.80
2023-01-25T19:09:31.707Z,28.37
2023-01-25T19:11:58.372Z,27.80
2023-01-25T19:14:25.292Z,27.70
2023-01-25T19:16:52.262Z,26.17
2023-01-25T19:19:20.796Z,29.17
2023-01-25T19:21:47.862Z,27.90
2023-01-25T19:24:19.415Z,27.27
2023-01-25T19:26:47.231Z,28.47
2023-01-25T19:29:14.729Z,27.40
2023-01-25T19:31:41.331Z,28.50
2023-01-25T19:34:08.015Z,29.83
2023-01-25T19:36:37.230Z,28.60
2023-01-25T19:39:05.727Z,26.93
2023-01-25T19:41:33.803Z,28.50
2023-01-25T19:44:02.500Z,29.27
2023-01-25T19:46:31.564Z,25.70
2023-01-25T19:48:59.536Z,28.60
2023-01-25T19:51:30.389Z,28.07
2023-01-25T19:54:00.167Z,29.80
2023-01-25T19:56:28.456Z,30.70
2023-01-25T19:58:55.241Z,30.50
2023-01-25T20:01:24.724Z,29.80
2023-01-25T20:03:52.119Z,26.50
2023-01-25T20:06:20.402Z,29.37
2023-01-25T20:08:47.803Z,29.40
2023-01-25T20:11:16.936Z,29.37
2023-01-25T20:13:43.916Z,29.40
2023-01-25T20:16:12.269Z,29.10
2023-01-25T20:18:39.578Z,29.13
2023-01-25T20:21:17.913Z,29.30
2023-01-25T20:23:46.553Z,30.37
2023-01-25T20:26:27.878Z,28.60
2023-01-25T20:28:56.920Z,28.80
2023-01-25T20:31:28.617Z,30.23
2023-01-25T20:33:58.316Z,30.70
2023-01-25T20:36:27.815Z,32.37
2023-01-25T20:38:55.310Z,33.50
2023-01-25T20:41:21.852Z,30.13
2023-01-25T20:43:54.015Z,29.87
2023-01-25T20:46:21.718Z,29.00
2023-01-25T20:48:48.981Z,28.73
2023-01-25T20:51:21.258Z,27.97
2023-01-25T20:53:49.422Z,31.17
2023-01-25T20:56:17.988Z,28.33
2023-01-25T20:58:50.207Z,29.70
2023-01-25T21:01:39.929Z,28.73
2023-01-25T21:04:09.373Z,26.83
2023-01-25T21:06:35.979Z,29.47
2023-01-25T21:09:03.193Z,29.90
2023-01-25T21:11:29.997Z,30.80
2023-01-25T21:13:57.113Z,28.80
2023-01-25T21:16:23.770Z,31.50
2023-01-25T21:18:54.423Z,30.17
2023-01-25T21:21:27.593Z,29.10
2023-01-25T21:23:56.859Z,29.00
2023-01-25T21:26:29.373Z,30.53
2023-01-25T21:28:57.800Z,27.93
2023-01-25T21:31:27.546Z,30.97
2023-01-25T21:33:54.964Z,31.00
2023-01-25T21:36:22.523Z,29.53
2023-01-25T21:38:50.650Z,30.40
2023-01-25T21:41:24.006Z,31.27
2023-01-25T21:44:10.648Z,29.57
2023-01-25T21:46:37.918Z,31.27
2023-01-25T21:49:25.459Z,29.33
2023-01-25T21:51:54.451Z,27.83
2023-01-25T21:54:25.821Z,30.90
2023-01-25T21:56:54.219Z,29.80
2023-01-25T21:59:21.524Z,28.93
2023-01-25T22:01:48.976Z,28.87
2023-01-25T22:04:17.582Z,30.17
2023-01-25T22:06:44.674Z,27.40
2023-01-25T22:09:13.205Z,30.37
2023-01-25T22:11:40.158Z,27.47
2023-01-25T22:14:07.122Z,29.23
2023-01-25T22:16:33.901Z,30.17
2023-01-25T22:19:00.492Z,27.33
2023-01-25T22:21:30.957Z,29.07
2023-01-25T22:23:59.612Z,30.10
2023-01-25T22:26:30.523Z,25.67
2023-01-25T22:28:58.419Z,27.83
2023-01-25T22:31:29.970Z,26.60
2023-01-25T22:33:58.959Z,27.87
2023-01-25T22:36:27.480Z,29.20
2023-01-25T22:38:54.275Z,29.57
2023-01-25T22:41:29.862Z,30.37
2023-01-25T22:43:57.789Z,29.27
2023-01-25T22:46:27.196Z,26.40
2023-01-25T22:48:53.797Z,29.33
2023-01-25T22:51:25.243Z,28.40
2023-01-25T22:53:52.295Z,29.77
2023-01-25T22:56:21.158Z,27.47
2023-01-25T22:58:48.164Z,30.00
2023-01-25T23:01:21.110Z,30.53
2023-01-25T23:03:49.202Z,31.20
2023-01-25T23:06:25.507Z,30.80
2023-01-25T23:08:56.035Z,31.60
2023-01-25T23:11:24.510Z,31.70
2023-01-25T23:14:11.529Z,30.13
2023-01-25T23:16:38.081Z,31.73
2023-01-25T23:19:05.710Z,34.27
2023-01-25T23:21:32.521Z,33.47
2023-01-25T23:24:01.259Z,32.37
2023-01-25T23:26:29.640Z,34.53
2023-01-25T23:28:57.513Z,34.97
2023-01-25T23:31:25.299Z,32.60
2023-01-25T23:33:55.976Z,33.47
2023-01-25T23:36:23.936Z,34.40
2023-01-25T23:38:51.336Z,37.40
2023-01-25T23:41:19.580Z,35.47
2023-01-25T23:43:46.410Z,35.60
2023-01-25T23:46:16.165Z,36.90
2023-01-25T23:48:44.236Z,36.67
2023-01-25T23:51:12.068Z,37.90
2023-01-25T23:53:39.695Z,33.57
2023-01-25T23:56:15.753Z,36.10
2023-01-25T23:58:42.481Z,35.50
